Time;durP1;ratioP1;P1;durP2;ratioP2;P2;SDS_P1;SDS_P2;PMS_P1;PMS_P2;Temp;Humidity;BMP_temperature;BMP_pressure;BME280_temperature;BME280_humidity;BME280_pressure;Samples;Min_cycle;Max_cycle;Signal;HPM_P1;HPM_P2
2023/05/03 04:43:26;;;;;;;16.45;2.25;;;15.00;64.20;;;;;;5304124;24;20050;-73
2023/05/03 04:45:52;;;;;;;17.25;2.13;;;15.10;64.10;;;;;;4828160;29;20462;-74
2023/05/03 04:48:18;;;;;;;14.52;1.70;;;15.20;63.70;;;;;;4826839;29;20129;-75
2023/05/03 04:50:48;;;;;;;10.75;2.50;;;15.30;63.80;;;;;;4824154;29;20142;-75
2023/05/03 04:53:14;;;;;;;29.70;2.28;;;15.40;63.40;;;;;;4814654;29;20133;-74
2023/05/03 04:55:40;;;;;;;18.08;2.63;;;15.50;63.80;;;;;;4817815;29;20426;-75
2023/05/03 04:58:06;;;;;;;17.98;2.05;;;15.60;64.00;;;;;;4808430;29;20051;-76
2023/05/03 05:00:32;;;;;;;16.40;2.22;;;15.70;64.00;;;;;;4792599;29;20055;-76
2023/05/03 05:02:57;;;;;;;23.25;2.13;;;15.80;64.00;;;;;;4808573;29;20093;-85
2023/05/03 05:05:23;;;;;;;18.23;2.45;;;15.90;63.90;;;;;;4792395;29;20047;-76
2023/05/03 05:07:50;;;;;;;20.52;2.30;;;15.90;63.80;;;;;;4808164;29;20043;-76
2023/05/03 05:10:15;;;;;;;19.67;2.97;;;16.00;63.90;;;;;;4808146;29;20134;-76
2023/05/03 05:12:41;;;;;;;11.93;1.80;;;16.00;64.10;;;;;;4808403;29;20403;-76
2023/05/03 05:15:08;;;;;;;16.00;2.55;;;16.00;64.30;;;;;;4808228;29;20168;-75
2023/05/03 05:17:33;;;;;;;19.52;3.80;;;16.00;64.20;;;;;;4808810;29;20050;-77
2023/05/03 05:19:59;;;;;;;24.98;2.92;;;16.00;64.50;;;;;;4807610;29;20463;-75
2023/05/03 05:22:25;;;;;;;32.60;3.55;;;15.90;64.30;;;;;;4808021;29;20055;-78
2023/05/03 05:24:51;;;;;;;15.77;1.98;;;15.90;62.70;;;;;;4808606;29;20063;-78
2023/05/03 05:27:16;;;;;;;16.30;2.00;;;15.30;55.20;;;;;;4807839;29;20073;-77
2023/05/03 05:29:42;;;;;;;11.20;1.25;;;14.50;53.50;;;;;;4792080;29;20053;-78
2023/05/03 05:32:08;;;;;;;40.13;4.03;;;14.00;54.10;;;;;;4792296;29;20058;-76
2023/05/03 05:34:33;;;;;;;19.80;3.70;;;14.20;62.70;;;;;;4808750;29;20126;-72
2023/05/03 05:36:59;;;;;;;21.83;2.63;;;14.40;63.70;;;;;;4811611;29;20058;-76
2023/05/03 05:39:25;;;;;;;22.00;2.03;;;14.50;64.00;;;;;;4814640;29;20068;-75
2023/05/03 05:41:50;;;;;;;16.60;2.55;;;14.70;63.00;;;;;;4826051;29;20062;-75
2023/05/03 05:44:16;;;;;;;19.00;3.13;;;14.70;62.30;;;;;;4824561;29;20362;-74
2023/05/03 05:46:42;;;;;;;14.18;2.60;;;14.80;62.00;;;;;;4825761;29;20054;-73
2023/05/03 05:49:08;;;;;;;16.10;2.70;;;14.90;62.10;;;;;;4826096;29;20129;-74
2023/05/03 05:51:33;;;;;;;30.35;3.28;;;14.90;60.80;;;;;;4826123;29;20107;-72
2023/05/03 05:53:59;;;;;;;20.40;2.15;;;15.00;60.10;;;;;;4826496;29;20111;-72
2023/05/03 05:56:25;;;;;;;13.38;2.08;;;14.90;59.30;;;;;;4829744;29;20339;-72
2023/05/03 05:58:51;;;;;;;16.55;2.63;;;14.90;58.60;;;;;;4829230;29;20069;-72
2023/05/03 06:01:16;;;;;;;16.55;1.92;;;14.90;58.20;;;;;;4829685;29;20057;-72
2023/05/03 06:03:42;;;;;;;11.07;1.83;;;14.90;58.20;;;;;;4829718;29;20113;-72
2023/05/03 06:06:08;;;;;;;9.63;1.60;;;14.90;58.10;;;;;;4829755;29;20141;-72
2023/05/03 06:08:33;;;;;;;10.25;1.40;;;14.90;58.30;;;;;;4828680;29;20076;-72
2023/05/03 06:11:00;;;;;;;16.52;1.88;;;14.80;58.40;;;;;;4828698;29;20488;-73
2023/05/03 06:13:25;;;;;;;10.45;1.73;;;14.80;58.60;;;;;;4829212;29;20133;-72
2023/05/03 06:15:51;;;;;;;9.18;1.38;;;14.80;58.60;;;;;;4829469;29;20137;-72
2023/05/03 06:18:17;;;;;;;14.38;1.80;;;14.80;58.90;;;;;;4827492;29;20370;-73
2023/05/03 06:20:42;;;;;;;7.78;1.38;;;14.80;59.10;;;;;;4829571;29;20119;-73
2023/05/03 06:23:08;;;;;;;15.23;1.23;;;14.80;59.30;;;;;;4829306;29;20446;-73
2023/05/03 06:25:35;;;;;;;6.45;1.30;;;14.80;59.30;;;;;;4829077;29;20118;-72
2023/05/03 06:28:01;;;;;;;7.40;1.23;;;14.80;59.40;;;;;;4828777;29;20097;-73
2023/05/03 06:30:27;;;;;;;6.20;1.33;;;14.80;59.50;;;;;;4812791;29;20086;-72
2023/05/03 06:32:53;;;;;;;6.75;1.25;;;14.70;59.60;;;;;;4829115;29;20424;-73
2023/05/03 06:35:20;;;;;;;9.02;1.30;;;14.70;59.70;;;;;;4829043;29;20119;-73
2023/05/03 06:37:47;;;;;;;5.05;1.25;;;14.70;59.80;;;;;;4828294;29;20046;-73
2023/05/03 06:40:12;;;;;;;8.15;1.15;;;14.70;60.00;;;;;;4828938;29;20137;-72
2023/05/03 06:42:38;;;;;;;10.15;1.20;;;14.70;60.00;;;;;;4829070;29;20129;-76
2023/05/03 06:45:04;;;;;;;13.65;2.03;;;14.70;60.20;;;;;;4828912;29;20462;-70
2023/05/03 06:47:30;;;;;;;9.63;1.50;;;14.70;60.10;;;;;;4828667;29;20058;-71
2023/05/03 06:49:56;;;;;;;9.07;1.48;;;14.70;60.00;;;;;;4828636;29;20057;-72
2023/05/03 06:52:22;;;;;;;10.52;1.52;;;14.70;60.20;;;;;;4828528;29;20062;-70
2023/05/03 06:54:47;;;;;;;7.65;1.15;;;14.70;60.30;;;;;;4828914;29;20050;-70
2023/05/03 06:57:13;;;;;;;14.73;1.65;;;14.60;57.30;;;;;;4828249;29;20450;-73
2023/05/03 06:59:39;;;;;;;10.60;1.35;;;14.40;55.80;;;;;;4828855;29;20354;-72
2023/05/03 07:02:06;;;;;;;7.05;1.48;;;14.30;57.50;;;;;;4826935;29;20050;-75
2023/05/03 07:04:32;;;;;;;7.35;1.40;;;14.20;54.80;;;;;;4825849;29;20099;-73
2023/05/03 07:06:57;;;;;;;17.80;2.40;;;14.00;53.80;;;;;;4828072;29;20054;-75
2023/05/03 07:09:23;;;;;;;14.38;2.38;;;14.10;57.50;;;;;;4827748;29;20107;-74
2023/05/03 07:11:50;;;;;;;17.20;1.83;;;14.20;56.10;;;;;;4828351;29;20057;-74
2023/05/03 07:14:16;;;;;;;10.40;1.13;;;14.30;53.70;;;;;;4828505;29;20446;-74
2023/05/03 07:16:42;;;;;;;11.50;1.45;;;14.20;53.60;;;;;;4828390;29;20050;-73
2023/05/03 07:19:07;;;;;;;5.72;1.08;;;14.10;54.80;;;;;;4828062;29;20054;-73
2023/05/03 07:21:34;;;;;;;6.53;1.10;;;14.10;55.10;;;;;;4828458;29;20445;-73
2023/05/03 07:24:00;;;;;;;9.98;1.48;;;14.10;55.70;;;;;;4828048;29;20111;-71
2023/05/03 07:26:26;;;;;;;4.97;0.98;;;14.20;55.70;;;;;;4827900;29;20058;-73
2023/05/03 07:28:52;;;;;;;3.67;0.70;;;14.20;54.70;;;;;;4828247;29;20047;-74
2023/05/03 07:31:20;;;;;;;8.48;1.25;;;14.20;53.40;;;;;;4828067;29;20468;-73
2023/05/03 07:33:45;;;;;;;4.18;1.00;;;14.20;52.90;;;;;;4827235;29;20054;-71
2023/05/03 07:36:11;;;;;;;5.45;0.70;;;14.20;52.40;;;;;;4827784;29;20444;-71
2023/05/03 07:38:37;;;;;;;5.63;0.90;;;14.20;52.70;;;;;;4818353;29;20054;-72
2023/05/03 07:41:02;;;;;;;7.03;0.85;;;14.20;53.60;;;;;;4822145;29;20078;-72
2023/05/03 07:43:29;;;;;;;14.55;1.40;;;14.20;54.20;;;;;;4840520;29;20111;-72
2023/05/03 07:45:55;;;;;;;8.80;1.20;;;14.20;56.50;;;;;;4817402;29;20062;-74
2023/05/03 07:48:21;;;;;;;10.18;1.88;;;14.10;56.50;;;;;;4824698;29;20058;-76
2023/05/03 07:50:46;;;;;;;13.13;1.52;;;14.10;56.50;;;;;;4824038;29;20057;-74
2023/05/03 07:53:13;;;;;;;9.15;1.00;;;14.00;56.80;;;;;;4827629;29;20087;-75
2023/05/03 07:55:39;;;;;;;7.13;0.98;;;14.00;56.80;;;;;;4826539;29;20057;-72
2023/05/03 07:58:04;;;;;;;4.70;0.80;;;14.00;56.80;;;;;;4827284;29;20370;-72
2023/05/03 08:00:30;;;;;;;8.10;1.30;;;14.10;56.60;;;;;;4827423;29;20090;-73
2023/05/03 08:02:56;;;;;;;8.85;1.15;;;14.00;56.70;;;;;;4827496;29;20054;-71
2023/05/03 08:05:22;;;;;;;6.60;1.48;;;14.00;57.00;;;;;;4827522;29;20402;-74
2023/05/03 08:07:52;;;;;;;5.32;1.30;;;13.90;57.30;;;;;;4826878;29;20053;-74
2023/05/03 08:10:17;;;;;;;5.40;0.82;;;13.90;57.50;;;;;;4827404;29;20054;-72
2023/05/03 08:12:44;;;;;;;7.63;0.98;;;13.80;57.60;;;;;;4821550;29;20481;-74
2023/05/03 08:15:10;;;;;;;5.93;0.82;;;13.80;58.50;;;;;;4827673;29;20050;-73
2023/05/03 08:17:43;;;;;;;8.77;0.90;;;13.80;58.80;;;;;;4826614;29;20054;-74
2023/05/03 08:20:10;;;;;;;9.25;1.23;;;13.90;58.70;;;;;;4827880;29;20070;-73
2023/05/03 08:22:37;;;;;;;6.00;0.90;;;13.80;58.90;;;;;;4827084;29;20411;-73
2023/05/03 08:25:03;;;;;;;5.45;1.02;;;13.80;59.00;;;;;;4827142;29;20098;-73
2023/05/03 08:27:30;;;;;;;3.38;1.08;;;13.90;58.90;;;;;;4826319;29;20133;-74
2023/05/03 08:29:56;;;;;;;16.60;2.10;;;13.90;59.00;;;;;;4825522;29;20129;-71
2023/05/03 08:32:22;;;;;;;23.38;2.63;;;13.90;59.10;;;;;;4825643;29;20133;-74
2023/05/03 08:34:49;;;;;;;17.95;2.53;;;14.00;59.00;;;;;;4821082;29;20343;-75
2023/05/03 08:37:15;;;;;;;13.25;1.48;;;14.00;58.70;;;;;;4824059;29;20343;-74
2023/05/03 08:39:40;;;;;;;12.30;1.52;;;13.90;58.60;;;;;;4816375;29;20070;-74
2023/05/03 08:42:07;;;;;;;7.47;1.08;;;13.90;58.80;;;;;;4808304;29;20138;-73
2023/05/03 08:44:36;;;;;;;7.22;1.17;;;13.90;58.70;;;;;;4793100;29;20059;-74
2023/05/03 08:47:05;;;;;;;12.07;1.55;;;13.90;58.70;;;;;;4808535;29;20058;-77
2023/05/03 08:49:34;;;;;;;11.68;1.65;;;13.90;58.90;;;;;;4817003;29;20065;-73
2023/05/03 08:52:01;;;;;;;9.43;1.73;;;13.90;59.20;;;;;;4826404;29;20054;-73
2023/05/03 08:54:26;;;;;;;16.30;1.80;;;13.90;59.30;;;;;;4826932;29;20118;-72
2023/05/03 08:56:52;;;;;;;10.90;1.65;;;13.90;59.50;;;;;;4826845;29;20042;-72
2023/05/03 08:59:18;;;;;;;9.25;1.27;;;13.90;59.20;;;;;;4821344;29;20149;-73
2023/05/03 09:01:44;;;;;;;8.60;1.20;;;14.00;58.70;;;;;;4810991;29;20055;-73
2023/05/03 09:04:10;;;;;;;10.23;1.65;;;14.10;58.30;;;;;;4808674;29;20054;-74
2023/05/03 09:06:37;;;;;;;13.15;1.65;;;14.10;57.90;;;;;;4825084;29;20050;-72
2023/05/03 09:09:06;;;;;;;15.52;2.17;;;14.20;58.10;;;;;;4821029;29;20083;-72
2023/05/03 09:11:32;;;;;;;8.05;1.27;;;14.20;58.50;;;;;;4826226;29;20358;-75
2023/05/03 09:14:12;;;;;;;9.25;1.23;;;14.20;58.60;;;;;;4818241;29;20042;-76
2023/05/03 09:16:39;;;;;;;6.97;1.05;;;14.40;58.10;;;;;;4808392;29;20062;-71
2023/05/03 09:19:08;;;;;;;7.63;1.30;;;14.60;58.00;;;;;;4816171;29;20050;-73
2023/05/03 09:21:38;;;;;;;15.55;1.75;;;14.70;57.90;;;;;;4825928;29;20061;-74
2023/05/03 09:24:17;;;;;;;13.32;1.27;;;14.90;57.90;;;;;;4826471;29;20111;-74
2023/05/03 09:26:45;;;;;;;10.55;1.50;;;15.10;58.30;;;;;;4823325;29;20042;-74
2023/05/03 09:29:29;;;;;;;12.18;1.88;;;15.20;58.10;;;;;;4825489;29;20127;-73
2023/05/03 09:32:01;;;;;;;15.40;2.13;;;15.30;58.30;;;;;;4827114;29;20137;-75
2023/05/03 09:34:27;;;;;;;24.00;2.25;;;15.30;58.40;;;;;;4826400;29;20065;-79
2023/05/03 09:36:53;;;;;;;9.80;1.70;;;15.20;57.50;;;;;;4826098;29;20137;-74
2023/05/03 09:39:19;;;;;;;14.98;1.83;;;15.30;58.80;;;;;;4819457;29;20061;-73
2023/05/03 09:41:46;;;;;;;17.70;2.53;;;15.30;59.00;;;;;;4792142;29;20066;-71
2023/05/03 09:44:12;;;;;;;31.75;3.88;;;15.30;59.40;;;;;;4807861;29;20062;-72
2023/05/03 09:46:38;;;;;;;28.83;3.30;;;15.40;60.30;;;;;;4807840;29;20459;-74
2023/05/03 09:49:04;;;;;;;31.35;3.45;;;15.40;59.80;;;;;;4813786;29;20046;-73
2023/05/03 09:51:31;;;;;;;26.98;3.90;;;15.50;60.00;;;;;;4826422;29;20050;-74
2023/05/03 09:53:58;;;;;;;31.42;3.92;;;15.50;59.90;;;;;;4810308;29;20070;-74
2023/05/03 09:56:25;;;;;;;37.20;4.63;;;15.50;59.50;;;;;;4810429;29;20042;-73
2023/05/03 09:58:55;;;;;;;27.60;3.88;;;15.50;59.60;;;;;;4825551;29;20509;-74
2023/05/03 10:01:23;;;;;;;33.28;4.28;;;15.50;59.80;;;;;;4825181;29;20062;-72
2023/05/03 10:03:51;;;;;;;35.33;4.72;;;15.60;60.60;;;;;;4825768;29;20065;-74
2023/05/03 10:06:25;;;;;;;35.83;4.18;;;15.70;60.90;;;;;;4825892;29;20050;-74
2023/05/03 10:09:05;;;;;;;37.10;4.15;;;15.60;60.40;;;;;;4823232;29;20055;-73
2023/05/03 10:11:35;;;;;;;41.38;5.65;;;15.90;61.40;;;;;;4820340;29;20059;-73
2023/05/03 10:14:02;;;;;;;39.20;5.22;;;16.00;61.40;;;;;;4808009;29;20058;-73
2023/05/03 10:16:32;;;;;;;33.55;4.82;;;16.10;61.40;;;;;;4807605;29;20046;-73
2023/05/03 10:19:12;;;;;;;49.80;5.72;;;16.20;61.70;;;;;;4818118;29;20050;-74
2023/05/03 10:22:06;;;;;;;10.85;2.13;;;16.20;61.90;;;;;;4825862;29;20543;-72
2023/05/03 10:24:33;;;;;;;36.58;5.13;;;15.80;55.30;;;;;;4825404;29;20059;-72
2023/05/03 10:26:59;;;;;;;26.80;3.70;;;15.70;61.10;;;;;;4816895;29;20115;-73
2023/05/03 10:29:34;;;;;;;25.58;3.50;;;15.80;61.50;;;;;;4824790;29;20062;-74
2023/05/03 10:32:04;;;;;;;20.13;2.80;;;15.90;60.30;;;;;;4825168;29;20143;-72
2023/05/03 10:34:31;;;;;;;15.95;2.45;;;15.90;60.40;;;;;;4825594;29;20054;-72
2023/05/03 10:37:01;;;;;;;23.00;3.45;;;15.90;60.00;;;;;;4825039;29;20133;-73
2023/05/03 10:39:27;;;;;;;15.50;2.78;;;16.00;59.70;;;;;;4816450;29;20049;-73
2023/05/03 10:42:02;;;;;;;30.70;3.28;;;16.00;59.60;;;;;;4823757;29;20378;-73
2023/05/03 10:44:37;;;;;;;17.85;2.92;;;16.00;58.80;;;;;;4833235;29;20133;-72
2023/05/03 10:47:17;;;;;;;20.85;2.83;;;16.00;58.90;;;;;;4823916;29;20137;-73
2023/05/03 10:49:43;;;;;;;11.82;2.10;;;15.90;58.60;;;;;;4824863;29;20046;-73
2023/05/03 10:52:36;;;;;;;12.00;2.30;;;15.90;58.40;;;;;;4828490;29;20055;-77
2023/05/03 10:55:11;;;;;;;15.53;2.23;;;15.90;58.30;;;;;;4826060;29;20057;-75
2023/05/03 10:57:42;;;;;;;18.42;2.30;;;15.80;58.40;;;;;;4828615;29;20296;-72
2023/05/03 11:00:21;;;;;;;14.70;2.65;;;15.80;58.60;;;;;;4827947;29;20141;-76
2023/05/03 11:03:14;;;;;;;20.70;2.50;;;15.80;58.90;;;;;;4828188;29;20066;-75
2023/05/03 11:05:41;;;;;;;19.40;2.25;;;15.80;58.80;;;;;;4813222;29;20435;-76
2023/05/03 11:08:18;;;;;;;8.82;1.80;;;15.80;58.40;;;;;;4819903;29;20047;-76
2023/05/03 11:10:45;;;;;;;14.52;1.67;;;15.70;58.00;;;;;;4828113;29;20084;-75
2023/05/03 11:13:12;;;;;;;9.30;1.70;;;15.50;57.90;;;;;;4828167;29;20129;-75
2023/05/03 11:15:38;;;;;;;13.27;2.20;;;15.50;58.10;;;;;;4813723;29;20348;-77
2023/05/03 11:18:10;;;;;;;6.63;1.30;;;15.50;57.80;;;;;;4841435;29;20058;-75
2023/05/03 11:20:37;;;;;;;4.85;1.05;;;15.50;57.60;;;;;;4828938;29;20050;-74
2023/05/03 11:23:04;;;;;;;6.85;1.33;;;15.40;57.30;;;;;;4827445;29;20066;-76
2023/05/03 11:25:32;;;;;;;8.57;1.27;;;15.40;57.20;;;;;;4823453;29;20092;-71
2023/05/03 11:28:00;;;;;;;8.00;1.60;;;15.40;57.10;;;;;;4810118;29;20054;-75
2023/05/03 11:30:26;;;;;;;6.82;1.42;;;15.30;58.00;;;;;;4809543;29;20111;-72
2023/05/03 11:32:52;;;;;;;5.32;1.25;;;15.30;57.80;;;;;;4810143;29;20054;-72
2023/05/03 11:35:18;;;;;;;7.72;1.63;;;15.20;58.00;;;;;;4809703;29;20050;-71
2023/05/03 11:37:44;;;;;;;5.60;1.10;;;15.20;58.40;;;;;;4812992;29;20043;-71
2023/05/03 11:40:19;;;;;;;3.78;0.90;;;15.20;58.50;;;;;;4809720;29;20051;-71
2023/05/03 11:42:52;;;;;;;8.32;1.20;;;15.20;58.60;;;;;;4810097;29;20043;-71
2023/05/03 11:45:23;;;;;;;13.60;2.35;;;15.10;57.70;;;;;;4809900;29;20073;-72
2023/05/03 11:47:50;;;;;;;7.90;1.20;;;15.10;58.10;;;;;;4826588;29;20042;-74
2023/05/03 11:50:16;;;;;;;16.73;1.60;;;15.10;57.70;;;;;;4813809;29;20063;-69
2023/05/03 11:52:42;;;;;;;8.10;1.20;;;15.00;54.70;;;;;;4808636;29;20082;-74
2023/05/03 11:55:09;;;;;;;6.85;1.38;;;14.90;56.00;;;;;;4809394;29;20111;-75
2023/05/03 11:57:36;;;;;;;5.40;1.30;;;14.90;56.00;;;;;;4818239;29;20465;-72
2023/05/03 12:00:13;;;;;;;6.78;1.20;;;14.90;56.50;;;;;;4827684;29;20454;-72
2023/05/03 12:02:40;;;;;;;7.10;1.50;;;14.90;56.90;;;;;;4825663;29;20081;-73
2023/05/03 12:05:07;;;;;;;5.38;0.93;;;14.90;57.30;;;;;;4827407;29;20069;-72
2023/05/03 12:07:33;;;;;;;11.65;1.55;;;14.90;57.80;;;;;;4826638;29;20058;-72
2023/05/03 12:10:00;;;;;;;4.53;1.00;;;14.90;58.80;;;;;;4821311;29;20109;-72
2023/05/03 12:12:26;;;;;;;4.10;0.75;;;14.90;58.30;;;;;;4826840;29;20064;-73
2023/05/03 12:15:00;;;;;;;9.20;1.40;;;14.90;58.50;;;;;;4811442;29;20054;-75
2023/05/03 12:17:38;;;;;;;4.53;1.27;;;14.90;58.70;;;;;;4827133;29;20358;-71
2023/05/03 12:20:22;;;;;;;5.03;0.90;;;14.90;58.80;;;;;;4827223;29;20211;-71
2023/05/03 12:22:52;;;;;;;4.10;0.98;;;15.00;59.10;;;;;;4827238;29;20050;-72
2023/05/03 12:25:20;;;;;;;2.33;0.80;;;15.00;59.20;;;;;;4827249;29;20043;-71
2023/05/03 12:27:46;;;;;;;5.40;1.17;;;15.00;59.30;;;;;;4826757;29;20054;-70
2023/05/03 12:30:12;;;;;;;2.63;0.65;;;15.00;59.40;;;;;;4826826;29;20057;-70
2023/05/03 12:32:38;;;;;;;2.17;0.77;;;15.00;59.60;;;;;;4827269;29;20050;-71
2023/05/03 12:35:10;;;;;;;5.35;1.17;;;15.00;59.70;;;;;;4827030;29;20126;-70
2023/05/03 12:37:36;;;;;;;3.30;0.75;;;15.00;59.90;;;;;;4827085;29;20141;-71
2023/05/03 12:40:05;;;;;;;2.60;0.50;;;15.00;60.00;;;;;;4826601;29;20061;-71
2023/05/03 12:42:31;;;;;;;6.65;0.82;;;15.10;60.10;;;;;;4826281;29;20057;-71
2023/05/03 12:44:58;;;;;;;4.32;0.95;;;15.10;60.10;;;;;;4826728;29;20058;-72
2023/05/03 12:47:24;;;;;;;2.90;0.57;;;15.10;60.30;;;;;;4826848;29;20137;-72
2023/05/03 12:49:50;;;;;;;3.22;0.85;;;15.10;60.30;;;;;;4826777;29;20121;-72
2023/05/03 12:52:16;;;;;;;3.63;0.90;;;15.10;60.40;;;;;;4826532;29;20042;-74
2023/05/03 12:54:42;;;;;;;4.82;0.70;;;15.10;60.40;;;;;;4826985;29;20057;-72
2023/05/03 12:57:09;;;;;;;4.38;0.73;;;15.10;60.40;;;;;;4810902;29;20137;-71
2023/05/03 12:59:36;;;;;;;2.90;0.80;;;15.10;60.60;;;;;;4826945;29;20057;-70
2023/05/03 13:02:02;;;;;;;2.78;0.70;;;15.10;60.60;;;;;;4816855;29;20055;-70
2023/05/03 13:04:28;;;;;;;2.53;0.75;;;15.10;60.70;;;;;;4826806;29;20069;-72
2023/05/03 13:06:55;;;;;;;3.88;0.90;;;15.10;60.80;;;;;;4821902;29;20363;-73
2023/05/03 13:09:21;;;;;;;2.58;0.57;;;15.10;60.80;;;;;;4821685;29;20481;-76
2023/05/03 13:11:48;;;;;;;1.58;0.40;;;15.10;60.80;;;;;;4824062;29;20352;-72
2023/05/03 13:14:15;;;;;;;3.00;0.65;;;15.20;60.90;;;;;;4817337;29;20190;-70
2023/05/03 13:16:47;;;;;;;9.77;1.60;;;15.10;60.80;;;;;;4825852;29;20069;-78
2023/05/03 13:19:14;;;;;;;11.98;2.03;;;15.20;60.30;;;;;;4825846;29;20046;-72
2023/05/03 13:21:40;;;;;;;5.97;1.05;;;15.20;60.20;;;;;;4825854;29;20042;-73
2023/05/03 13:24:06;;;;;;;4.78;0.80;;;15.20;60.40;;;;;;4825803;29;20137;-73
2023/05/03 13:26:32;;;;;;;6.22;1.27;;;15.20;60.40;;;;;;4825775;29;20047;-76
2023/05/03 13:28:59;;;;;;;6.40;0.93;;;15.20;60.40;;;;;;4820063;29;20061;-74
2023/05/03 13:31:27;;;;;;;8.10;1.23;;;15.20;60.60;;;;;;4818628;29;20061;-71
2023/05/03 13:33:53;;;;;;;10.57;2.03;;;15.20;60.50;;;;;;4816202;29;20042;-72
2023/05/03 13:36:21;;;;;;;7.75;1.02;;;15.20;60.60;;;;;;4807986;29;20485;-71
2023/05/03 13:38:48;;;;;;;15.55;1.50;;;15.20;60.70;;;;;;4807910;29;20073;-70
2023/05/03 13:41:15;;;;;;;10.90;1.50;;;15.20;60.80;;;;;;4807737;29;20501;-71
2023/05/03 13:43:41;;;;;;;7.30;1.42;;;15.20;60.70;;;;;;4825282;29;20050;-71
2023/05/03 13:46:08;;;;;;;7.95;1.25;;;15.20;60.80;;;;;;4826541;29;20427;-71
2023/05/03 13:48:33;;;;;;;5.68;1.23;;;15.20;60.80;;;;;;4826400;29;20054;-70
2023/05/03 13:51:05;;;;;;;10.63;1.77;;;15.20;60.80;;;;;;4829388;29;20046;-71
2023/05/03 13:53:31;;;;;;;6.80;1.20;;;15.20;60.80;;;;;;4844543;29;20137;-71
2023/05/03 13:55:56;;;;;;;8.70;1.98;;;15.20;60.80;;;;;;4844752;29;20133;-71
2023/05/03 13:58:22;;;;;;;4.47;1.10;;;15.20;60.80;;;;;;4839451;29;20386;-70
2023/05/03 14:00:48;;;;;;;9.20;1.35;;;15.20;60.80;;;;;;4826755;29;20472;-71
2023/05/03 14:03:14;;;;;;;5.65;1.10;;;15.20;60.80;;;;;;4826155;29;20357;-70
2023/05/03 14:05:39;;;;;;;5.95;1.20;;;15.20;60.70;;;;;;4825997;29;20072;-71
2023/05/03 14:08:05;;;;;;;7.45;0.98;;;15.20;60.70;;;;;;4810095;29;20053;-70
2023/05/03 14:10:34;;;;;;;5.32;1.10;;;15.20;60.70;;;;;;4826135;29;20062;-71
2023/05/03 14:13:00;;;;;;;5.95;1.20;;;15.20;60.70;;;;;;4825973;29;20082;-71
2023/05/03 14:15:26;;;;;;;6.00;1.50;;;15.20;60.70;;;;;;4825723;29;20054;-70
2023/05/03 14:17:52;;;;;;;6.90;1.38;;;15.20;60.80;;;;;;4829045;29;20130;-70
2023/05/03 14:20:17;;;;;;;5.43;1.30;;;15.20;60.80;;;;;;4828949;29;20126;-72
2023/05/03 14:22:44;;;;;;;13.27;2.17;;;15.30;60.70;;;;;;4827778;29;20062;-70
2023/05/03 14:25:10;;;;;;;14.48;2.00;;;15.40;60.70;;;;;;4829095;29;20057;-71
2023/05/03 14:27:36;;;;;;;10.52;1.63;;;15.40;60.60;;;;;;4829276;29;20046;-71
2023/05/03 14:30:02;;;;;;;9.00;1.95;;;15.30;60.60;;;;;;4828870;29;20089;-71
2023/05/03 14:32:28;;;;;;;10.98;1.48;;;15.30;60.50;;;;;;4829118;29;20129;-72
2023/05/03 14:34:55;;;;;;;13.30;1.98;;;15.30;60.30;;;;;;4827712;29;20116;-70
2023/05/03 14:37:21;;;;;;;9.75;1.65;;;15.30;60.20;;;;;;4826915;29;20046;-70
2023/05/03 14:39:47;;;;;;;9.80;1.80;;;15.40;60.20;;;;;;4828581;29;20111;-70
2023/05/03 14:42:13;;;;;;;7.22;1.50;;;15.40;60.30;;;;;;4827322;29;20050;-70
2023/05/03 14:44:38;;;;;;;4.45;1.10;;;15.40;59.30;;;;;;4816577;29;20478;-70
2023/05/03 14:47:05;;;;;;;2.45;0.90;;;15.50;57.20;;;;;;4823737;29;20054;-70
2023/05/03 14:49:39;;;;;;;3.90;0.95;;;15.50;56.40;;;;;;4828868;29;20378;-69
2023/05/03 14:52:06;;;;;;;4.00;1.00;;;15.50;55.70;;;;;;4827234;29;20116;-70
2023/05/03 14:54:33;;;;;;;4.43;0.70;;;15.50;55.70;;;;;;4828788;29;20053;-70
2023/05/03 14:56:58;;;;;;;2.75;0.98;;;15.50;55.10;;;;;;4828680;29;20046;-70
2023/05/03 14:59:24;;;;;;;4.47;1.20;;;15.50;54.50;;;;;;4828576;29;20110;-70
2023/05/03 15:01:53;;;;;;;4.10;1.08;;;15.50;54.30;;;;;;4828435;29;20089;-70
2023/05/03 15:04:19;;;;;;;4.65;1.20;;;15.40;54.70;;;;;;4828311;29;20050;-70
2023/05/03 15:06:45;;;;;;;5.90;1.08;;;15.50;54.30;;;;;;4828364;29;20050;-69
2023/05/03 15:09:12;;;;;;;7.35;1.40;;;15.50;53.40;;;;;;4828150;29;20137;-69
2023/05/03 15:11:39;;;;;;;7.70;1.33;;;15.40;53.50;;;;;;4828460;29;20169;-69
2023/05/03 15:14:04;;;;;;;3.92;1.10;;;15.50;54.00;;;;;;4827898;29;20408;-69
2023/05/03 15:16:30;;;;;;;4.88;1.38;;;15.50;53.90;;;;;;4828185;29;20065;-69
2023/05/03 15:18:56;;;;;;;4.20;1.30;;;15.40;54.00;;;;;;4828054;29;20054;-69
2023/05/03 15:21:23;;;;;;;3.40;0.77;;;15.40;53.90;;;;;;4828079;29;20058;-69
2023/05/03 15:23:50;;;;;;;3.35;1.13;;;15.40;54.10;;;;;;4828039;29;20462;-69
2023/05/03 15:26:16;;;;;;;2.80;0.90;;;15.40;53.80;;;;;;4828256;29;20077;-69
2023/05/03 15:28:42;;;;;;;5.00;1.17;;;15.40;53.80;;;;;;4827629;29;20047;-72
2023/05/03 15:31:07;;;;;;;4.65;1.20;;;15.40;53.90;;;;;;4828078;29;20057;-70
2023/05/03 15:33:42;;;;;;;6.47;1.08;;;15.40;54.00;;;;;;4827452;29;20421;-71
2023/05/03 15:36:10;;;;;;;5.18;1.13;;;15.40;54.00;;;;;;4827964;29;20054;-72
2023/05/03 15:38:36;;;;;;;3.80;1.30;;;15.40;55.00;;;;;;4827854;29;20447;-71
2023/05/03 15:41:02;;;;;;;10.23;1.70;;;15.40;55.00;;;;;;4827253;29;20083;-71
2023/05/03 15:43:27;;;;;;;6.00;1.50;;;15.50;55.10;;;;;;4827882;29;20054;-72
2023/05/03 15:45:53;;;;;;;4.18;1.52;;;15.50;54.80;;;;;;4827986;29;20066;-72
2023/05/03 15:48:19;;;;;;;4.25;0.75;;;15.50;55.00;;;;;;4827786;29;20431;-72
2023/05/03 15:50:45;;;;;;;2.70;0.90;;;15.50;54.70;;;;;;4827607;29;20046;-72
2023/05/03 15:53:10;;;;;;;8.90;1.40;;;15.50;54.70;;;;;;4827753;29;20110;-72
2023/05/03 15:55:36;;;;;;;3.35;0.90;;;15.50;54.90;;;;;;4827265;29;20084;-72
2023/05/03 15:58:02;;;;;;;2.90;0.90;;;15.50;54.80;;;;;;4827874;29;20450;-72
2023/05/03 16:00:29;;;;;;;5.78;1.30;;;15.50;54.80;;;;;;4827724;29;20034;-73
2023/05/03 16:02:56;;;;;;;4.03;1.15;;;15.60;55.00;;;;;;4827822;29;20062;-73
2023/05/03 16:05:22;;;;;;;7.60;1.30;;;15.60;54.60;;;;;;4817732;29;20050;-74
2023/05/03 16:07:48;;;;;;;13.48;1.20;;;15.50;54.60;;;;;;4809536;29;20050;-74
2023/05/03 16:10:14;;;;;;;9.57;1.95;;;15.50;54.70;;;;;;4812099;29;20043;-72
2023/05/03 16:12:41;;;;;;;19.10;2.55;;;15.40;54.30;;;;;;4827305;29;20065;-72
2023/05/03 16:15:07;;;;;;;9.65;2.22;;;15.40;55.20;;;;;;4827862;29;20133;-72
2023/05/03 16:17:33;;;;;;;23.98;2.83;;;15.40;55.60;;;;;;4827144;29;20415;-72
2023/05/03 16:19:59;;;;;;;16.98;2.13;;;15.50;56.10;;;;;;4827249;29;20355;-72
2023/05/03 16:22:26;;;;;;;20.60;2.47;;;15.50;56.80;;;;;;4827207;29;20057;-72
2023/05/03 16:24:52;;;;;;;19.70;3.60;;;15.50;57.40;;;;;;4827473;29;20060;-73
2023/05/03 16:27:18;;;;;;;31.60;4.30;;;15.50;57.90;;;;;;4827154;29;20134;-73
2023/05/03 16:29:44;;;;;;;33.70;4.53;;;15.60;58.40;;;;;;4827069;29;20046;-73
2023/05/03 16:32:10;;;;;;;39.30;4.72;;;15.60;58.90;;;;;;4827070;29;20141;-73
2023/05/03 16:34:36;;;;;;;25.92;3.97;;;15.60;59.10;;;;;;4827043;29;20058;-73
2023/05/03 16:37:02;;;;;;;28.48;3.92;;;15.70;59.30;;;;;;4827214;29;20058;-72
2023/05/03 16:39:28;;;;;;;26.67;4.00;;;15.60;59.50;;;;;;4826581;29;20057;-73
2023/05/03 16:41:53;;;;;;;21.65;3.42;;;15.60;60.00;;;;;;4826501;29;20050;-73
2023/05/03 16:44:19;;;;;;;31.23;4.72;;;15.70;60.10;;;;;;4826816;29;20062;-74
2023/05/03 16:46:45;;;;;;;37.65;5.20;;;15.70;60.60;;;;;;4826858;29;20069;-74
2023/05/03 16:49:11;;;;;;;33.63;4.75;;;15.70;61.60;;;;;;4832973;29;20057;-74
